VA90 weather

CLOSED Hudgins Farm Ultralightport
Cobbs Creek, Virginia, United States

Public forecast

Using degrees Fahrenheit for public forecast. Weather courtesy of forecast.io.

METAR (pilot weather report)

Closest report is Middle Peninsula Regional Airport, 16.8 nm (31.1 km) W. Retrieved 2019/09/19 05:35 UTC (0 seconds ago):

KFYJ 190535Z AUTO 00000KT 10SM CLR 11/11 A3026 RMK AO1 T01140108

TAF (pilot weather forecast)

Forecast is more than 12 hours old.

Closest forecast is Newport News Williamsburg International Airport, 22.2 nm (41.2 km) S. Retrieved 2019/09/18 00:30 UTC (1 day ago):

TAF KPHF 182328Z 1900/1924 05010KT P6SM SCT050 FM190600 04012KT P6SM SKC FM191400 04012G19KT P6SM SCT050 FM192100 05009KT P6SM FEW050